sensor_id;sensor_type;location;lat;lon;timestamp;P1;durP1;ratioP1;P2;durP2;ratioP2
13571;SDS011;6857;53.484;10.216;2022-10-26T00:01:30;14.97;;;9.47;;
13571;SDS011;6857;53.484;10.216;2022-10-26T00:03:56;12.77;;;8.53;;
13571;SDS011;6857;53.484;10.216;2022-10-26T00:06:22;15.50;;;9.57;;
13571;SDS011;6857;53.484;10.216;2022-10-26T00:08:49;15.63;;;9.87;;
13571;SDS011;6857;53.484;10.216;2022-10-26T00:11:16;15.47;;;9.10;;
13571;SDS011;6857;53.484;10.216;2022-10-26T00:13:43;14.17;;;8.47;;
13571;SDS011;6857;53.484;10.216;2022-10-26T00:16:11;13.70;;;9.40;;
13571;SDS011;6857;53.484;10.216;2022-10-26T00:18:39;12.97;;;9.17;;
13571;SDS011;6857;53.484;10.216;2022-10-26T00:21:05;14.77;;;8.93;;
13571;SDS011;6857;53.484;10.216;2022-10-26T00:23:32;18.77;;;9.43;;
13571;SDS011;6857;53.484;10.216;2022-10-26T00:25:58;13.27;;;8.87;;
13571;SDS011;6857;53.484;10.216;2022-10-26T00:28:23;15.80;;;9.10;;
13571;SDS011;6857;53.484;10.216;2022-10-26T00:30:49;17.33;;;9.27;;
13571;SDS011;6857;53.484;10.216;2022-10-26T00:33:15;16.10;;;9.47;;
13571;SDS011;6857;53.484;10.216;2022-10-26T00:35:41;13.20;;;9.37;;
13571;SDS011;6857;53.484;10.216;2022-10-26T00:38:07;14.57;;;10.20;;
13571;SDS011;6857;53.484;10.216;2022-10-26T00:40:33;15.60;;;9.27;;
13571;SDS011;6857;53.484;10.216;2022-10-26T00:42:58;16.37;;;9.17;;
13571;SDS011;6857;53.484;10.216;2022-10-26T00:45:28;16.10;;;9.03;;
13571;SDS011;6857;53.484;10.216;2022-10-26T00:48:04;15.43;;;8.90;;
13571;SDS011;6857;53.484;10.216;2022-10-26T00:50:32;17.23;;;9.70;;
13571;SDS011;6857;53.484;10.216;2022-10-26T00:53:06;14.80;;;9.97;;
13571;SDS011;6857;53.484;10.216;2022-10-26T00:55:34;15.90;;;10.77;;
13571;SDS011;6857;53.484;10.216;2022-10-26T00:58:04;17.20;;;9.50;;
13571;SDS011;6857;53.484;10.216;2022-10-26T01:00:32;18.33;;;10.87;;
13571;SDS011;6857;53.484;10.216;2022-10-26T01:02:58;19.67;;;10.40;;
13571;SDS011;6857;53.484;10.216;2022-10-26T01:05:28;18.23;;;10.37;;
13571;SDS011;6857;53.484;10.216;2022-10-26T01:07:55;17.57;;;10.00;;
13571;SDS011;6857;53.484;10.216;2022-10-26T01:10:21;16.40;;;10.23;;
13571;SDS011;6857;53.484;10.216;2022-10-26T01:12:49;18.80;;;10.00;;
13571;SDS011;6857;53.484;10.216;2022-10-26T01:15:15;14.20;;;9.77;;
13571;SDS011;6857;53.484;10.216;2022-10-26T01:18:06;20.23;;;9.93;;
13571;SDS011;6857;53.484;10.216;2022-10-26T01:32:05;18.03;;;10.83;;
13571;SDS011;6857;53.484;10.216;2022-10-26T01:34:43;17.57;;;10.67;;
13571;SDS011;6857;53.484;10.216;2022-10-26T01:37:20;19.30;;;9.50;;
13571;SDS011;6857;53.484;10.216;2022-10-26T01:39:53;14.53;;;9.40;;
13571;SDS011;6857;53.484;10.216;2022-10-26T01:42:26;15.90;;;10.00;;
13571;SDS011;6857;53.484;10.216;2022-10-26T01:45:05;19.40;;;9.83;;
13571;SDS011;6857;53.484;10.216;2022-10-26T01:47:33;14.97;;;10.00;;
13571;SDS011;6857;53.484;10.216;2022-10-26T01:50:01;16.77;;;10.53;;
13571;SDS011;6857;53.484;10.216;2022-10-26T01:52:29;16.53;;;9.37;;
13571;SDS011;6857;53.484;10.216;2022-10-26T01:55:01;16.07;;;9.87;;
13571;SDS011;6857;53.484;10.216;2022-10-26T01:57:30;16.43;;;9.63;;
13571;SDS011;6857;53.484;10.216;2022-10-26T02:00:03;16.30;;;10.10;;
13571;SDS011;6857;53.484;10.216;2022-10-26T02:13:00;17.70;;;10.37;;
13571;SDS011;6857;53.484;10.216;2022-10-26T02:15:47;18.77;;;10.40;;
13571;SDS011;6857;53.484;10.216;2022-10-26T02:20:52;23.97;;;11.17;;
13571;SDS011;6857;53.484;10.216;2022-10-26T02:23:22;18.10;;;10.40;;
13571;SDS011;6857;53.484;10.216;2022-10-26T02:25:50;15.20;;;10.23;;
13571;SDS011;6857;53.484;10.216;2022-10-26T02:28:24;21.03;;;11.97;;
13571;SDS011;6857;53.484;10.216;2022-10-26T02:30:56;20.47;;;10.83;;
13571;SDS011;6857;53.484;10.216;2022-10-26T02:33:24;16.60;;;10.80;;
13571;SDS011;6857;53.484;10.216;2022-10-26T02:35:53;17.37;;;11.27;;
13571;SDS011;6857;53.484;10.216;2022-10-26T02:38:19;16.60;;;10.30;;
13571;SDS011;6857;53.484;10.216;2022-10-26T02:40:47;19.53;;;10.43;;
13571;SDS011;6857;53.484;10.216;2022-10-26T02:43:16;17.90;;;10.20;;
13571;SDS011;6857;53.484;10.216;2022-10-26T02:45:47;18.30;;;10.70;;
13571;SDS011;6857;53.484;10.216;2022-10-26T02:48:16;17.40;;;10.17;;
13571;SDS011;6857;53.484;10.216;2022-10-26T02:56:16;26.37;;;11.73;;
13571;SDS011;6857;53.484;10.216;2022-10-26T02:58:47;18.93;;;11.13;;
13571;SDS011;6857;53.484;10.216;2022-10-26T03:01:16;19.70;;;11.97;;
13571;SDS011;6857;53.484;10.216;2022-10-26T03:03:42;27.23;;;11.97;;
13571;SDS011;6857;53.484;10.216;2022-10-26T03:06:07;22.13;;;11.37;;
13571;SDS011;6857;53.484;10.216;2022-10-26T03:08:33;24.67;;;12.50;;
13571;SDS011;6857;53.484;10.216;2022-10-26T03:10:59;19.27;;;11.87;;
13571;SDS011;6857;53.484;10.216;2022-10-26T03:13:24;19.87;;;11.67;;
13571;SDS011;6857;53.484;10.216;2022-10-26T03:15:50;24.70;;;12.10;;
13571;SDS011;6857;53.484;10.216;2022-10-26T03:18:18;21.80;;;12.00;;
13571;SDS011;6857;53.484;10.216;2022-10-26T03:20:44;23.73;;;12.00;;
13571;SDS011;6857;53.484;10.216;2022-10-26T03:23:09;19.90;;;11.07;;
13571;SDS011;6857;53.484;10.216;2022-10-26T03:25:36;22.07;;;11.80;;
13571;SDS011;6857;53.484;10.216;2022-10-26T03:28:02;20.53;;;12.33;;
13571;SDS011;6857;53.484;10.216;2022-10-26T03:30:29;21.47;;;12.60;;
13571;SDS011;6857;53.484;10.216;2022-10-26T03:32:55;22.77;;;12.50;;
13571;SDS011;6857;53.484;10.216;2022-10-26T03:35:21;24.63;;;13.53;;
13571;SDS011;6857;53.484;10.216;2022-10-26T03:37:47;23.27;;;12.63;;
13571;SDS011;6857;53.484;10.216;2022-10-26T03:40:12;21.90;;;12.43;;
13571;SDS011;6857;53.484;10.216;2022-10-26T03:42:38;21.17;;;12.27;;
13571;SDS011;6857;53.484;10.216;2022-10-26T03:45:05;21.73;;;13.03;;
13571;SDS011;6857;53.484;10.216;2022-10-26T03:47:31;23.10;;;12.00;;
13571;SDS011;6857;53.484;10.216;2022-10-26T03:49:57;23.17;;;12.73;;
13571;SDS011;6857;53.484;10.216;2022-10-26T03:52:22;26.57;;;13.60;;
13571;SDS011;6857;53.484;10.216;2022-10-26T03:54:48;22.77;;;12.63;;
13571;SDS011;6857;53.484;10.216;2022-10-26T03:57:15;22.77;;;13.10;;
13571;SDS011;6857;53.484;10.216;2022-10-26T03:59:40;24.33;;;13.00;;
13571;SDS011;6857;53.484;10.216;2022-10-26T04:02:06;24.17;;;12.80;;
13571;SDS011;6857;53.484;10.216;2022-10-26T04:04:31;24.07;;;14.37;;
13571;SDS011;6857;53.484;10.216;2022-10-26T04:06:57;27.40;;;13.43;;
13571;SDS011;6857;53.484;10.216;2022-10-26T04:09:22;25.33;;;13.50;;
13571;SDS011;6857;53.484;10.216;2022-10-26T04:11:48;23.40;;;13.33;;
13571;SDS011;6857;53.484;10.216;2022-10-26T04:14:14;29.10;;;13.73;;
13571;SDS011;6857;53.484;10.216;2022-10-26T04:16:39;23.33;;;13.60;;
13571;SDS011;6857;53.484;10.216;2022-10-26T04:19:05;24.27;;;13.27;;
13571;SDS011;6857;53.484;10.216;2022-10-26T04:21:31;24.73;;;13.43;;
13571;SDS011;6857;53.484;10.216;2022-10-26T04:23:59;28.00;;;16.17;;
13571;SDS011;6857;53.484;10.216;2022-10-26T04:26:25;28.10;;;15.10;;
13571;SDS011;6857;53.484;10.216;2022-10-26T04:28:51;26.53;;;15.50;;
13571;SDS011;6857;53.484;10.216;2022-10-26T04:31:17;30.50;;;17.47;;
13571;SDS011;6857;53.484;10.216;2022-10-26T04:33:42;29.77;;;16.17;;
13571;SDS011;6857;53.484;10.216;2022-10-26T04:36:08;29.83;;;15.77;;
13571;SDS011;6857;53.484;10.216;2022-10-26T04:38:34;34.67;;;17.33;;
13571;SDS011;6857;53.484;10.216;2022-10-26T04:40:59;30.90;;;16.03;;
13571;SDS011;6857;53.484;10.216;2022-10-26T04:43:25;31.93;;;16.27;;
13571;SDS011;6857;53.484;10.216;2022-10-26T04:45:54;26.57;;;15.57;;
13571;SDS011;6857;53.484;10.216;2022-10-26T04:48:20;28.73;;;16.27;;
13571;SDS011;6857;53.484;10.216;2022-10-26T04:50:46;29.30;;;16.23;;
13571;SDS011;6857;53.484;10.216;2022-10-26T04:53:11;34.87;;;17.67;;
13571;SDS011;6857;53.484;10.216;2022-10-26T04:55:37;37.43;;;17.73;;
13571;SDS011;6857;53.484;10.216;2022-10-26T04:58:03;33.27;;;18.53;;
13571;SDS011;6857;53.484;10.216;2022-10-26T05:00:29;33.60;;;18.83;;
13571;SDS011;6857;53.484;10.216;2022-10-26T05:03:03;36.27;;;18.50;;
13571;SDS011;6857;53.484;10.216;2022-10-26T05:05:31;39.20;;;18.17;;
13571;SDS011;6857;53.484;10.216;2022-10-26T05:07:58;36.97;;;19.10;;
13571;SDS011;6857;53.484;10.216;2022-10-26T05:10:23;38.30;;;19.60;;
13571;SDS011;6857;53.484;10.216;2022-10-26T05:12:50;38.00;;;18.63;;
13571;SDS011;6857;53.484;10.216;2022-10-26T05:15:16;35.03;;;19.40;;
13571;SDS011;6857;53.484;10.216;2022-10-26T05:17:42;41.03;;;18.70;;
13571;SDS011;6857;53.484;10.216;2022-10-26T05:20:07;35.73;;;19.03;;
13571;SDS011;6857;53.484;10.216;2022-10-26T05:22:37;39.03;;;19.63;;
13571;SDS011;6857;53.484;10.216;2022-10-26T05:25:03;34.80;;;19.53;;
13571;SDS011;6857;53.484;10.216;2022-10-26T05:27:28;38.17;;;19.17;;
13571;SDS011;6857;53.484;10.216;2022-10-26T05:29:54;40.10;;;20.37;;
13571;SDS011;6857;53.484;10.216;2022-10-26T05:32:19;37.23;;;19.47;;
13571;SDS011;6857;53.484;10.216;2022-10-26T05:34:45;39.20;;;19.63;;
13571;SDS011;6857;53.484;10.216;2022-10-26T05:37:11;38.00;;;19.07;;
13571;SDS011;6857;53.484;10.216;2022-10-26T05:39:36;44.67;;;23.33;;
13571;SDS011;6857;53.484;10.216;2022-10-26T05:42:02;38.03;;;20.73;;
13571;SDS011;6857;53.484;10.216;2022-10-26T05:44:27;36.33;;;20.10;;
13571;SDS011;6857;53.484;10.216;2022-10-26T05:46:53;35.70;;;19.63;;
13571;SDS011;6857;53.484;10.216;2022-10-26T05:49:18;37.00;;;19.43;;
13571;SDS011;6857;53.484;10.216;2022-10-26T05:51:44;37.10;;;19.97;;
13571;SDS011;6857;53.484;10.216;2022-10-26T05:54:09;36.07;;;19.00;;
13571;SDS011;6857;53.484;10.216;2022-10-26T05:56:36;34.00;;;19.43;;
13571;SDS011;6857;53.484;10.216;2022-10-26T05:59:04;33.77;;;18.77;;
13571;SDS011;6857;53.484;10.216;2022-10-26T06:02:25;40.20;;;19.60;;
13571;SDS011;6857;53.484;10.216;2022-10-26T06:04:47;37.83;;;19.30;;
13571;SDS011;6857;53.484;10.216;2022-10-26T06:07:17;38.97;;;21.37;;
13571;SDS011;6857;53.484;10.216;2022-10-26T06:09:46;37.63;;;21.33;;
13571;SDS011;6857;53.484;10.216;2022-10-26T06:12:12;40.23;;;20.27;;
13571;SDS011;6857;53.484;10.216;2022-10-26T06:14:39;38.33;;;21.30;;
13571;SDS011;6857;53.484;10.216;2022-10-26T06:19:54;34.33;;;20.07;;
13571;SDS011;6857;53.484;10.216;2022-10-26T06:26:07;41.50;;;20.47;;
13571;SDS011;6857;53.484;10.216;2022-10-26T06:31:21;34.03;;;19.90;;
13571;SDS011;6857;53.484;10.216;2022-10-26T06:33:47;38.87;;;19.63;;
13571;SDS011;6857;53.484;10.216;2022-10-26T06:36:23;36.03;;;19.87;;
13571;SDS011;6857;53.484;10.216;2022-10-26T06:39:01;35.50;;;20.07;;
13571;SDS011;6857;53.484;10.216;2022-10-26T06:41:32;38.50;;;20.27;;
13571;SDS011;6857;53.484;10.216;2022-10-26T06:43:59;36.70;;;19.87;;
13571;SDS011;6857;53.484;10.216;2022-10-26T06:49:17;39.13;;;20.13;;
13571;SDS011;6857;53.484;10.216;2022-10-26T06:54:47;35.70;;;19.73;;
13571;SDS011;6857;53.484;10.216;2022-10-26T06:57:18;33.70;;;21.10;;
13571;SDS011;6857;53.484;10.216;2022-10-26T06:59:58;31.50;;;18.67;;
13571;SDS011;6857;53.484;10.216;2022-10-26T07:02:26;34.30;;;19.63;;
13571;SDS011;6857;53.484;10.216;2022-10-26T07:04:52;32.87;;;18.90;;
13571;SDS011;6857;53.484;10.216;2022-10-26T07:07:21;33.67;;;19.43;;
13571;SDS011;6857;53.484;10.216;2022-10-26T07:09:49;32.03;;;18.83;;
13571;SDS011;6857;53.484;10.216;2022-10-26T07:12:15;32.90;;;19.17;;
13571;SDS011;6857;53.484;10.216;2022-10-26T07:14:41;30.87;;;17.23;;
13571;SDS011;6857;53.484;10.216;2022-10-26T07:17:07;34.87;;;17.77;;
13571;SDS011;6857;53.484;10.216;2022-10-26T07:19:33;36.17;;;18.60;;
13571;SDS011;6857;53.484;10.216;2022-10-26T07:21:59;36.13;;;19.93;;
13571;SDS011;6857;53.484;10.216;2022-10-26T07:24:25;32.00;;;19.20;;
13571;SDS011;6857;53.484;10.216;2022-10-26T07:26:54;29.80;;;17.90;;
13571;SDS011;6857;53.484;10.216;2022-10-26T07:29:21;30.67;;;19.50;;
13571;SDS011;6857;53.484;10.216;2022-10-26T07:31:48;34.20;;;20.37;;
13571;SDS011;6857;53.484;10.216;2022-10-26T07:34:14;35.63;;;20.03;;
13571;SDS011;6857;53.484;10.216;2022-10-26T07:36:40;34.10;;;19.07;;
13571;SDS011;6857;53.484;10.216;2022-10-26T07:39:06;33.30;;;19.80;;
13571;SDS011;6857;53.484;10.216;2022-10-26T07:41:31;31.60;;;18.13;;
13571;SDS011;6857;53.484;10.216;2022-10-26T07:43:57;30.47;;;18.63;;
13571;SDS011;6857;53.484;10.216;2022-10-26T07:46:23;30.17;;;17.23;;
13571;SDS011;6857;53.484;10.216;2022-10-26T07:48:48;31.03;;;18.30;;
13571;SDS011;6857;53.484;10.216;2022-10-26T07:51:14;28.30;;;17.40;;
13571;SDS011;6857;53.484;10.216;2022-10-26T07:53:40;27.87;;;17.37;;
13571;SDS011;6857;53.484;10.216;2022-10-26T07:56:06;30.10;;;17.77;;
13571;SDS011;6857;53.484;10.216;2022-10-26T07:58:33;34.27;;;17.40;;
13571;SDS011;6857;53.484;10.216;2022-10-26T08:01:10;26.47;;;15.93;;
13571;SDS011;6857;53.484;10.216;2022-10-26T08:03:38;26.77;;;16.97;;
13571;SDS011;6857;53.484;10.216;2022-10-26T08:06:04;25.77;;;16.07;;
13571;SDS011;6857;53.484;10.216;2022-10-26T08:08:31;27.43;;;15.93;;
13571;SDS011;6857;53.484;10.216;2022-10-26T08:10:57;27.13;;;16.77;;
13571;SDS011;6857;53.484;10.216;2022-10-26T08:13:23;23.87;;;16.07;;
13571;SDS011;6857;53.484;10.216;2022-10-26T08:15:49;23.60;;;14.30;;
13571;SDS011;6857;53.484;10.216;2022-10-26T08:18:20;21.97;;;14.50;;
13571;SDS011;6857;53.484;10.216;2022-10-26T08:20:45;26.63;;;15.30;;
13571;SDS011;6857;53.484;10.216;2022-10-26T08:23:11;25.77;;;15.40;;
13571;SDS011;6857;53.484;10.216;2022-10-26T08:25:36;22.73;;;14.30;;
13571;SDS011;6857;53.484;10.216;2022-10-26T08:28:02;21.67;;;15.10;;
13571;SDS011;6857;53.484;10.216;2022-10-26T08:30:29;21.00;;;15.50;;
13571;SDS011;6857;53.484;10.216;2022-10-26T08:33:02;19.10;;;14.27;;
13571;SDS011;6857;53.484;10.216;2022-10-26T08:35:29;21.37;;;13.43;;
13571;SDS011;6857;53.484;10.216;2022-10-26T08:37:55;21.77;;;14.20;;
13571;SDS011;6857;53.484;10.216;2022-10-26T08:40:25;23.27;;;14.60;;
13571;SDS011;6857;53.484;10.216;2022-10-26T08:42:57;19.20;;;13.70;;
13571;SDS011;6857;53.484;10.216;2022-10-26T08:48:04;17.73;;;12.80;;
13571;SDS011;6857;53.484;10.216;2022-10-26T08:50:36;20.80;;;12.97;;
13571;SDS011;6857;53.484;10.216;2022-10-26T08:53:10;19.53;;;13.07;;
13571;SDS011;6857;53.484;10.216;2022-10-26T08:55:44;16.73;;;12.63;;
13571;SDS011;6857;53.484;10.216;2022-10-26T08:58:16;19.30;;;12.83;;
13571;SDS011;6857;53.484;10.216;2022-10-26T09:00:47;16.47;;;11.30;;
13571;SDS011;6857;53.484;10.216;2022-10-26T09:03:15;15.03;;;11.03;;
13571;SDS011;6857;53.484;10.216;2022-10-26T09:08:52;16.77;;;11.03;;
13571;SDS011;6857;53.484;10.216;2022-10-26T09:11:47;16.10;;;10.63;;
13571;SDS011;6857;53.484;10.216;2022-10-26T09:14:18;14.57;;;10.27;;
13571;SDS011;6857;53.484;10.216;2022-10-26T09:17:16;13.40;;;9.57;;
13571;SDS011;6857;53.484;10.216;2022-10-26T09:20:01;14.30;;;9.67;;
13571;SDS011;6857;53.484;10.216;2022-10-26T09:22:51;16.37;;;9.30;;
13571;SDS011;6857;53.484;10.216;2022-10-26T09:25:22;18.33;;;9.73;;
13571;SDS011;6857;53.484;10.216;2022-10-26T09:27:55;12.47;;;9.03;;
13571;SDS011;6857;53.484;10.216;2022-10-26T09:30:23;15.27;;;9.13;;
13571;SDS011;6857;53.484;10.216;2022-10-26T09:32:50;11.03;;;7.70;;
13571;SDS011;6857;53.484;10.216;2022-10-26T09:35:21;15.40;;;9.73;;
13571;SDS011;6857;53.484;10.216;2022-10-26T09:38:14;11.40;;;8.27;;
13571;SDS011;6857;53.484;10.216;2022-10-26T09:43:28;15.83;;;8.80;;
13571;SDS011;6857;53.484;10.216;2022-10-26T09:46:23;11.13;;;8.10;;
13571;SDS011;6857;53.484;10.216;2022-10-26T09:49:07;9.73;;;8.33;;
13571;SDS011;6857;53.484;10.216;2022-10-26T09:51:36;10.70;;;7.63;;
13571;SDS011;6857;53.484;10.216;2022-10-26T09:54:16;14.80;;;8.37;;
13571;SDS011;6857;53.484;10.216;2022-10-26T09:56:43;11.70;;;7.83;;
13571;SDS011;6857;53.484;10.216;2022-10-26T09:59:23;13.53;;;7.47;;
13571;SDS011;6857;53.484;10.216;2022-10-26T10:01:49;11.10;;;7.67;;
13571;SDS011;6857;53.484;10.216;2022-10-26T10:06:41;10.53;;;7.43;;
13571;SDS011;6857;53.484;10.216;2022-10-26T10:09:09;25.20;;;20.20;;
13571;SDS011;6857;53.484;10.216;2022-10-26T10:11:42;10.37;;;6.90;;
13571;SDS011;6857;53.484;10.216;2022-10-26T10:14:38;10.87;;;8.07;;
13571;SDS011;6857;53.484;10.216;2022-10-26T10:17:20;11.60;;;7.17;;
13571;SDS011;6857;53.484;10.216;2022-10-26T10:19:47;17.20;;;11.23;;
13571;SDS011;6857;53.484;10.216;2022-10-26T10:24:39;11.87;;;8.27;;
13571;SDS011;6857;53.484;10.216;2022-10-26T10:27:21;14.27;;;9.40;;
13571;SDS011;6857;53.484;10.216;2022-10-26T10:29:48;13.03;;;8.83;;
13571;SDS011;6857;53.484;10.216;2022-10-26T10:32:19;10.83;;;7.43;;
13571;SDS011;6857;53.484;10.216;2022-10-26T10:34:45;9.93;;;7.40;;
13571;SDS011;6857;53.484;10.216;2022-10-26T10:37:27;9.60;;;7.00;;
13571;SDS011;6857;53.484;10.216;2022-10-26T10:40:06;8.50;;;6.73;;
13571;SDS011;6857;53.484;10.216;2022-10-26T10:42:39;9.37;;;6.97;;
13571;SDS011;6857;53.484;10.216;2022-10-26T10:45:06;11.33;;;7.70;;
13571;SDS011;6857;53.484;10.216;2022-10-26T10:48:33;9.10;;;7.00;;
13571;SDS011;6857;53.484;10.216;2022-10-26T10:50:35;9.73;;;7.90;;
13571;SDS011;6857;53.484;10.216;2022-10-26T10:53:11;11.43;;;8.13;;
13571;SDS011;6857;53.484;10.216;2022-10-26T10:55:37;9.07;;;8.17;;
13571;SDS011;6857;53.484;10.216;2022-10-26T11:00:29;9.77;;;6.93;;
13571;SDS011;6857;53.484;10.216;2022-10-26T11:03:03;12.20;;;7.07;;
13571;SDS011;6857;53.484;10.216;2022-10-26T11:05:37;10.03;;;7.07;;
13571;SDS011;6857;53.484;10.216;2022-10-26T11:10:41;12.17;;;8.07;;
13571;SDS011;6857;53.484;10.216;2022-10-26T11:13:17;11.03;;;7.20;;
13571;SDS011;6857;53.484;10.216;2022-10-26T11:15:43;11.03;;;6.60;;
13571;SDS011;6857;53.484;10.216;2022-10-26T11:18:56;11.23;;;7.63;;
13571;SDS011;6857;53.484;10.216;2022-10-26T11:21:13;8.63;;;6.47;;
13571;SDS011;6857;53.484;10.216;2022-10-26T11:23:51;8.07;;;6.60;;
13571;SDS011;6857;53.484;10.216;2022-10-26T11:26:53;9.87;;;7.17;;
13571;SDS011;6857;53.484;10.216;2022-10-26T11:32:00;9.70;;;6.37;;
13571;SDS011;6857;53.484;10.216;2022-10-26T11:37:12;10.43;;;6.40;;
13571;SDS011;6857;53.484;10.216;2022-10-26T11:42:12;7.77;;;6.77;;
13571;SDS011;6857;53.484;10.216;2022-10-26T11:52:58;7.73;;;6.37;;
13571;SDS011;6857;53.484;10.216;2022-10-26T11:55:46;8.67;;;5.67;;
13571;SDS011;6857;53.484;10.216;2022-10-26T11:58:18;9.07;;;6.37;;
13571;SDS011;6857;53.484;10.216;2022-10-26T12:00:50;7.17;;;5.57;;
13571;SDS011;6857;53.484;10.216;2022-10-26T12:03:28;9.27;;;6.10;;
13571;SDS011;6857;53.484;10.216;2022-10-26T12:05:57;8.17;;;5.40;;
13571;SDS011;6857;53.484;10.216;2022-10-26T12:08:24;5.73;;;5.10;;
13571;SDS011;6857;53.484;10.216;2022-10-26T12:11:00;10.30;;;5.57;;
13571;SDS011;6857;53.484;10.216;2022-10-26T12:13:31;9.23;;;5.07;;
13571;SDS011;6857;53.484;10.216;2022-10-26T12:16:08;9.80;;;5.00;;
13571;SDS011;6857;53.484;10.216;2022-10-26T12:18:46;6.90;;;4.00;;
13571;SDS011;6857;53.484;10.216;2022-10-26T12:21:28;6.53;;;4.53;;
13571;SDS011;6857;53.484;10.216;2022-10-26T12:23:56;9.80;;;4.87;;
13571;SDS011;6857;53.484;10.216;2022-10-26T12:26:53;7.10;;;3.97;;
13571;SDS011;6857;53.484;10.216;2022-10-26T12:32:03;6.57;;;3.63;;
13571;SDS011;6857;53.484;10.216;2022-10-26T12:37:21;6.87;;;3.97;;
13571;SDS011;6857;53.484;10.216;2022-10-26T12:40:36;9.83;;;4.17;;
13571;SDS011;6857;53.484;10.216;2022-10-26T12:43:42;5.30;;;3.93;;
13571;SDS011;6857;53.484;10.216;2022-10-26T12:45:46;5.90;;;3.50;;
13571;SDS011;6857;53.484;10.216;2022-10-26T12:48:38;4.57;;;3.73;;
13571;SDS011;6857;53.484;10.216;2022-10-26T12:53:55;7.23;;;4.27;;
13571;SDS011;6857;53.484;10.216;2022-10-26T12:59:48;7.30;;;4.40;;
13571;SDS011;6857;53.484;10.216;2022-10-26T13:07:59;6.40;;;3.40;;
13571;SDS011;6857;53.484;10.216;2022-10-26T13:10:30;6.23;;;3.33;;
13571;SDS011;6857;53.484;10.216;2022-10-26T13:12:57;5.23;;;3.27;;
13571;SDS011;6857;53.484;10.216;2022-10-26T13:15:29;6.90;;;3.93;;
13571;SDS011;6857;53.484;10.216;2022-10-26T13:18:09;6.97;;;3.50;;
13571;SDS011;6857;53.484;10.216;2022-10-26T13:21:02;5.10;;;3.10;;
13571;SDS011;6857;53.484;10.216;2022-10-26T13:23:37;9.73;;;3.70;;
13571;SDS011;6857;53.484;10.216;2022-10-26T13:26:17;5.13;;;3.43;;
13571;SDS011;6857;53.484;10.216;2022-10-26T13:28:45;6.13;;;3.50;;
13571;SDS011;6857;53.484;10.216;2022-10-26T13:33:53;6.70;;;3.33;;
13571;SDS011;6857;53.484;10.216;2022-10-26T13:39:21;4.23;;;3.07;;
13571;SDS011;6857;53.484;10.216;2022-10-26T13:41:50;5.53;;;3.07;;
13571;SDS011;6857;53.484;10.216;2022-10-26T13:44:32;3.13;;;2.63;;
13571;SDS011;6857;53.484;10.216;2022-10-26T13:47:05;9.47;;;2.90;;
13571;SDS011;6857;53.484;10.216;2022-10-26T13:49:41;9.13;;;3.00;;
13571;SDS011;6857;53.484;10.216;2022-10-26T13:52:21;4.53;;;2.93;;
13571;SDS011;6857;53.484;10.216;2022-10-26T13:55:06;9.83;;;3.30;;
13571;SDS011;6857;53.484;10.216;2022-10-26T13:57:41;5.03;;;2.87;;
13571;SDS011;6857;53.484;10.216;2022-10-26T14:00:15;7.17;;;4.80;;
13571;SDS011;6857;53.484;10.216;2022-10-26T14:02:44;6.27;;;3.03;;
13571;SDS011;6857;53.484;10.216;2022-10-26T14:05:11;6.20;;;2.83;;
13571;SDS011;6857;53.484;10.216;2022-10-26T14:12:55;5.10;;;2.77;;
13571;SDS011;6857;53.484;10.216;2022-10-26T14:15:31;7.53;;;4.80;;
13571;SDS011;6857;53.484;10.216;2022-10-26T14:17:59;6.90;;;2.80;;
13571;SDS011;6857;53.484;10.216;2022-10-26T14:20:26;6.10;;;2.60;;
13571;SDS011;6857;53.484;10.216;2022-10-26T14:22:53;6.13;;;3.97;;
13571;SDS011;6857;53.484;10.216;2022-10-26T14:25:26;6.17;;;2.90;;
13571;SDS011;6857;53.484;10.216;2022-10-26T14:27:54;7.23;;;2.30;;
13571;SDS011;6857;53.484;10.216;2022-10-26T14:30:21;5.00;;;2.07;;
13571;SDS011;6857;53.484;10.216;2022-10-26T14:32:52;2.07;;;1.60;;
13571;SDS011;6857;53.484;10.216;2022-10-26T14:35:20;5.03;;;2.80;;
13571;SDS011;6857;53.484;10.216;2022-10-26T14:37:53;4.40;;;2.80;;
13571;SDS011;6857;53.484;10.216;2022-10-26T14:40:24;7.33;;;2.03;;
13571;SDS011;6857;53.484;10.216;2022-10-26T14:42:56;6.57;;;2.13;;
13571;SDS011;6857;53.484;10.216;2022-10-26T14:45:33;4.63;;;2.20;;
13571;SDS011;6857;53.484;10.216;2022-10-26T14:48:00;6.00;;;2.40;;
13571;SDS011;6857;53.484;10.216;2022-10-26T14:50:28;7.00;;;4.40;;
13571;SDS011;6857;53.484;10.216;2022-10-26T14:53:01;7.37;;;2.27;;
13571;SDS011;6857;53.484;10.216;2022-10-26T14:55:47;12.43;;;7.83;;
13571;SDS011;6857;53.484;10.216;2022-10-26T14:58:28;4.03;;;2.77;;
13571;SDS011;6857;53.484;10.216;2022-10-26T15:01:23;5.83;;;2.53;;
13571;SDS011;6857;53.484;10.216;2022-10-26T15:03:51;5.03;;;3.50;;
13571;SDS011;6857;53.484;10.216;2022-10-26T15:09:02;5.63;;;3.67;;
13571;SDS011;6857;53.484;10.216;2022-10-26T15:11:30;5.73;;;2.43;;
13571;SDS011;6857;53.484;10.216;2022-10-26T15:13:57;5.83;;;3.00;;
13571;SDS011;6857;53.484;10.216;2022-10-26T15:16:27;7.50;;;4.13;;
13571;SDS011;6857;53.484;10.216;2022-10-26T15:18:59;6.03;;;2.97;;
13571;SDS011;6857;53.484;10.216;2022-10-26T15:21:36;6.80;;;3.23;;
13571;SDS011;6857;53.484;10.216;2022-10-26T15:26:52;5.53;;;2.40;;
13571;SDS011;6857;53.484;10.216;2022-10-26T15:29:34;3.83;;;2.27;;
13571;SDS011;6857;53.484;10.216;2022-10-26T15:32:01;3.93;;;2.57;;
13571;SDS011;6857;53.484;10.216;2022-10-26T15:34:28;6.83;;;2.77;;
13571;SDS011;6857;53.484;10.216;2022-10-26T15:36:54;5.67;;;3.40;;
13571;SDS011;6857;53.484;10.216;2022-10-26T15:39:20;6.63;;;3.17;;
13571;SDS011;6857;53.484;10.216;2022-10-26T15:41:46;7.20;;;3.93;;
13571;SDS011;6857;53.484;10.216;2022-10-26T15:44:16;7.53;;;2.97;;
13571;SDS011;6857;53.484;10.216;2022-10-26T15:46:45;3.87;;;2.60;;
13571;SDS011;6857;53.484;10.216;2022-10-26T15:49:15;6.53;;;3.03;;
13571;SDS011;6857;53.484;10.216;2022-10-26T15:51:43;4.93;;;2.63;;
13571;SDS011;6857;53.484;10.216;2022-10-26T15:54:10;6.90;;;3.47;;
13571;SDS011;6857;53.484;10.216;2022-10-26T15:56:35;4.70;;;3.17;;
13571;SDS011;6857;53.484;10.216;2022-10-26T15:59:04;7.17;;;3.50;;
13571;SDS011;6857;53.484;10.216;2022-10-26T16:01:37;8.60;;;3.93;;
13571;SDS011;6857;53.484;10.216;2022-10-26T16:04:02;7.37;;;3.53;;
13571;SDS011;6857;53.484;10.216;2022-10-26T16:06:28;9.13;;;3.43;;
13571;SDS011;6857;53.484;10.216;2022-10-26T16:08:57;5.37;;;4.03;;
13571;SDS011;6857;53.484;10.216;2022-10-26T16:11:25;6.50;;;3.30;;
13571;SDS011;6857;53.484;10.216;2022-10-26T16:13:51;6.67;;;3.40;;
13571;SDS011;6857;53.484;10.216;2022-10-26T16:16:17;9.53;;;4.00;;
13571;SDS011;6857;53.484;10.216;2022-10-26T16:18:44;8.13;;;4.03;;
13571;SDS011;6857;53.484;10.216;2022-10-26T16:21:13;11.83;;;4.83;;
13571;SDS011;6857;53.484;10.216;2022-10-26T16:23:41;10.30;;;6.10;;
13571;SDS011;6857;53.484;10.216;2022-10-26T16:26:10;11.40;;;5.73;;
13571;SDS011;6857;53.484;10.216;2022-10-26T16:28:35;8.43;;;5.10;;
13571;SDS011;6857;53.484;10.216;2022-10-26T16:31:10;9.80;;;5.47;;
13571;SDS011;6857;53.484;10.216;2022-10-26T16:33:37;8.70;;;5.13;;
13571;SDS011;6857;53.484;10.216;2022-10-26T16:36:04;10.37;;;5.37;;
13571;SDS011;6857;53.484;10.216;2022-10-26T16:38:30;9.83;;;4.97;;
13571;SDS011;6857;53.484;10.216;2022-10-26T16:41:00;7.10;;;4.27;;
13571;SDS011;6857;53.484;10.216;2022-10-26T16:43:32;6.57;;;5.20;;